Terminal Aerodrome Forecast
Issued by NWS

Home | Current Version | Previous Version | Text Only | Print | Product List | Glossary Off
Versions: 1 2 3 4 5 6 7 8 9 10 11 12 13 14 15 16

000
FTUS43 KMPX 301527 AAB
TAFRWF
TAF AMD
KRWF 301527Z 3015/0112 08005KT 1/2SM FG OVC002
     FM301630 09005KT 2SM BR BKN005
     FM301730 09006KT P6SM SCT020
     FM010000 09004KT P6SM SCT030 BKN050
     FM011000 11003KT 6SM BR OVC025=

USA.gov is the U.S. government's official web portal to all federal, state and local government web resources and services.